Time;durP1;ratioP1;P1;durP2;ratioP2;P2;SDS_P1;SDS_P2;PMS_P1;PMS_P2;Temp;Humidity;BMP_temperature;BMP_pressure;BME280_temperature;BME280_humidity;BME280_pressure;Samples;Min_cycle;Max_cycle;Signal;HPM_P1;HPM_P2
2022/04/15 00:01:37;;;;;;;10.95;8.85;;;14.60;96.00;;;;;;5078975;28;20033;-83
2022/04/15 00:04:03;;;;;;;10.68;8.48;;;14.60;96.80;;;;;;5079446;28;20020;-83
2022/04/15 00:06:30;;;;;;;13.88;11.00;;;14.50;97.30;;;;;;5080236;28;20046;-83
2022/04/15 00:08:56;;;;;;;12.02;9.80;;;14.60;97.80;;;;;;5059958;28;20036;-83
2022/04/15 00:11:22;;;;;;;13.38;10.02;;;14.50;98.40;;;;;;5079805;28;20025;-83
2022/04/15 00:13:48;;;;;;;10.82;9.30;;;14.50;98.50;;;;;;5079208;28;20392;-83
2022/04/15 00:16:15;;;;;;;10.25;8.75;;;14.40;99.00;;;;;;5062360;28;20029;-83
2022/04/15 00:18:41;;;;;;;14.43;10.73;;;14.40;99.50;;;;;;5078521;28;20063;-83
2022/04/15 00:21:07;;;;;;;17.75;12.20;;;14.30;99.90;;;;;;5079183;28;20032;-83
2022/04/15 00:23:34;;;;;;;14.02;12.60;;;14.20;99.90;;;;;;5079725;28;20033;-83
2022/04/15 00:26:00;;;;;;;15.27;12.00;;;14.00;99.90;;;;;;5093405;28;20032;-81
2022/04/15 00:28:26;;;;;;;10.57;9.48;;;13.90;99.90;;;;;;5074125;28;20547;-83
2022/04/15 00:30:53;;;;;;;10.30;9.02;;;13.80;99.90;;;;;;5079493;28;20025;-83
2022/04/15 00:33:19;;;;;;;10.85;9.55;;;13.80;99.90;;;;;;5079443;28;20061;-83
2022/04/15 00:35:44;;;;;;;11.77;10.73;;;13.70;99.90;;;;;;5078941;28;20126;-83
2022/04/15 00:38:13;;;;;;;13.50;10.65;;;13.60;99.90;;;;;;5078103;28;20021;-83
2022/04/15 00:40:39;;;;;;;10.70;9.60;;;13.50;99.90;;;;;;5078560;28;20036;-82
2022/04/15 00:43:04;;;;;;;10.68;9.68;;;13.40;99.90;;;;;;5084078;28;20052;-82
2022/04/15 00:45:30;;;;;;;10.55;8.73;;;13.40;99.90;;;;;;5094387;28;20020;-82
2022/04/15 00:47:58;;;;;;;16.85;14.65;;;13.40;99.90;;;;;;5093740;28;20012;-81
2022/04/15 00:50:31;;;;;;;16.25;14.48;;;13.40;99.90;;;;;;5093742;28;20452;-82
2022/04/15 00:53:00;;;;;;;14.65;13.13;;;13.40;99.90;;;;;;5079537;28;20096;-82
2022/04/15 00:55:27;;;;;;;16.02;13.30;;;13.50;99.90;;;;;;5077137;28;20055;-83
2022/04/15 00:57:57;;;;;;;17.35;14.43;;;13.50;99.90;;;;;;5077528;28;20652;-83
2022/04/15 01:00:25;;;;;;;17.45;15.75;;;13.40;99.90;;;;;;5078371;28;20237;-83
2022/04/15 01:02:52;;;;;;;18.08;16.25;;;13.40;99.90;;;;;;5079019;28;20035;-82
2022/04/15 01:05:18;;;;;;;16.30;14.68;;;13.30;99.90;;;;;;5084362;28;20334;-83
2022/04/15 01:07:55;;;;;;;14.35;12.85;;;13.40;99.90;;;;;;5078744;28;20024;-83
2022/04/15 01:10:22;;;;;;;13.15;11.85;;;13.30;99.90;;;;;;5077659;28;20329;-82
2022/04/15 01:12:56;;;;;;;11.32;10.32;;;13.30;99.90;;;;;;5077423;28;20044;-82
2022/04/15 01:15:25;;;;;;;12.40;11.10;;;13.30;99.90;;;;;;5089208;28;20080;-81
2022/04/15 01:17:51;;;;;;;14.23;12.63;;;13.30;99.90;;;;;;5077637;28;20705;-82
2022/04/15 01:20:17;;;;;;;11.93;10.80;;;13.30;99.90;;;;;;5077293;28;20044;-82
2022/04/15 01:22:53;;;;;;;13.85;12.25;;;13.30;99.90;;;;;;5077496;28;20044;-82
2022/04/15 01:25:19;;;;;;;14.93;13.43;;;13.30;99.90;;;;;;5081228;28;20052;-83
2022/04/15 01:27:47;;;;;;;11.75;10.65;;;13.30;99.90;;;;;;5078842;28;20040;-83
2022/04/15 01:30:14;;;;;;;11.80;10.75;;;13.30;99.90;;;;;;5079051;28;20078;-82
2022/04/15 01:32:40;;;;;;;13.65;12.23;;;13.30;99.90;;;;;;5039945;28;20028;-81
2022/04/15 01:35:07;;;;;;;10.93;9.93;;;13.40;99.90;;;;;;5060430;28;20025;-81
2022/04/15 01:37:35;;;;;;;10.15;9.15;;;13.40;99.90;;;;;;5066168;28;20037;-81
2022/04/15 01:40:05;;;;;;;9.80;8.85;;;13.40;99.90;;;;;;5049251;28;20096;-82
2022/04/15 01:42:32;;;;;;;9.30;8.40;;;13.50;99.90;;;;;;5050015;28;20029;-82
2022/04/15 01:44:58;;;;;;;13.98;12.48;;;13.50;99.90;;;;;;5049508;28;20029;-82
2022/04/15 01:47:24;;;;;;;15.00;13.50;;;13.50;99.90;;;;;;5065191;28;20155;-83
2022/04/15 01:49:50;;;;;;;15.98;14.27;;;13.50;99.90;;;;;;5063565;28;20032;-83
2022/04/15 01:52:15;;;;;;;15.15;13.55;;;13.50;99.90;;;;;;5063876;28;20078;-82
2022/04/15 01:54:41;;;;;;;13.45;12.05;;;13.50;99.90;;;;;;5066140;28;20526;-82
2022/04/15 01:57:07;;;;;;;14.73;13.32;;;13.50;99.90;;;;;;5066444;28;20025;-84
2022/04/15 01:59:33;;;;;;;14.30;12.88;;;13.50;99.90;;;;;;5081057;28;20021;-81
2022/04/15 02:01:58;;;;;;;15.98;14.23;;;13.50;99.90;;;;;;5086430;28;20103;-82
2022/04/15 02:04:27;;;;;;;17.55;14.98;;;13.50;99.90;;;;;;5087485;28;20028;-82
2022/04/15 02:06:54;;;;;;;14.32;12.82;;;13.40;99.90;;;;;;5087638;28;20031;-81
2022/04/15 02:09:19;;;;;;;14.82;13.15;;;13.50;99.90;;;;;;5084465;28;20024;-82
2022/04/15 02:11:45;;;;;;;15.35;13.60;;;13.50;99.90;;;;;;5086902;28;20096;-82
2022/04/15 02:14:16;;;;;;;16.27;13.40;;;13.50;99.90;;;;;;5086995;28;20122;-81
2022/04/15 02:16:42;;;;;;;14.00;11.40;;;13.40;99.90;;;;;;5084709;28;20142;-83
2022/04/15 02:19:08;;;;;;;13.32;11.93;;;13.50;99.90;;;;;;5082669;28;20025;-83
2022/04/15 02:21:34;;;;;;;13.93;12.52;;;13.50;99.90;;;;;;5084301;28;20040;-84
2022/04/15 02:24:00;;;;;;;15.00;13.48;;;13.50;99.90;;;;;;5083572;28;20480;-82
2022/04/15 02:26:26;;;;;;;17.65;15.85;;;13.50;99.90;;;;;;5085478;28;20036;-82
2022/04/15 02:28:52;;;;;;;15.23;13.75;;;13.50;99.90;;;;;;5077548;28;20031;-83
2022/04/15 02:31:18;;;;;;;14.35;12.98;;;13.50;99.90;;;;;;5085961;28;20017;-81
2022/04/15 02:33:44;;;;;;;13.02;11.63;;;13.50;99.90;;;;;;5087145;28;20052;-82
2022/04/15 02:36:10;;;;;;;11.35;10.10;;;13.60;99.90;;;;;;5085040;28;20044;-81
2022/04/15 02:38:36;;;;;;;12.57;11.40;;;13.50;99.90;;;;;;5092096;28;20493;-82
2022/04/15 02:41:04;;;;;;;16.50;14.80;;;13.60;99.90;;;;;;5093851;28;20020;-82
2022/04/15 02:43:33;;;;;;;18.63;16.40;;;13.60;99.90;;;;;;5081664;28;20085;-82
2022/04/15 02:46:01;;;;;;;21.10;18.95;;;13.60;99.90;;;;;;5081796;28;20021;-81
2022/04/15 02:48:27;;;;;;;18.52;16.25;;;13.60;99.90;;;;;;5091770;28;20028;-81
2022/04/15 02:50:53;;;;;;;15.15;13.55;;;13.50;99.90;;;;;;5087180;28;20016;-83
2022/04/15 02:53:19;;;;;;;23.05;18.42;;;13.50;99.90;;;;;;5078873;28;20400;-82
2022/04/15 02:55:45;;;;;;;21.77;17.95;;;13.50;99.90;;;;;;5081192;28;20055;-82
2022/04/15 02:58:11;;;;;;;22.17;16.98;;;13.50;99.90;;;;;;5077523;28;20024;-83
2022/04/15 03:00:37;;;;;;;17.88;16.00;;;13.50;99.90;;;;;;5078244;28;20032;-83
2022/04/15 03:03:03;;;;;;;21.13;18.10;;;13.50;99.90;;;;;;5079169;28;20095;-82
2022/04/15 03:05:30;;;;;;;21.20;18.80;;;13.50;99.90;;;;;;5079091;28;20487;-81
2022/04/15 03:07:56;;;;;;;22.08;19.63;;;13.50;99.90;;;;;;5078553;28;20016;-81
2022/04/15 03:10:22;;;;;;;27.80;20.13;;;13.50;99.90;;;;;;5077821;28;20100;-81
2022/04/15 03:12:48;;;;;;;21.42;18.30;;;13.40;99.90;;;;;;5080133;28;20021;-81
2022/04/15 03:15:14;;;;;;;18.35;15.75;;;13.40;99.90;;;;;;5078189;28;20055;-80
2022/04/15 03:17:40;;;;;;;23.27;18.63;;;13.30;99.90;;;;;;5078017;28;20116;-80
2022/04/15 03:20:07;;;;;;;22.50;18.52;;;13.30;99.90;;;;;;5077661;28;20062;-83
2022/04/15 03:22:40;;;;;;;22.48;18.75;;;13.30;99.90;;;;;;5069509;28;20040;-85
2022/04/15 03:25:08;;;;;;;22.02;19.55;;;13.30;99.90;;;;;;5069610;28;20051;-82
2022/04/15 03:27:34;;;;;;;20.20;18.05;;;13.30;99.90;;;;;;5060350;28;20024;-81
2022/04/15 03:30:00;;;;;;;23.92;19.80;;;13.20;99.90;;;;;;5073995;28;20025;-81
2022/04/15 03:32:25;;;;;;;21.08;18.73;;;13.30;99.90;;;;;;5075841;28;20154;-81
2022/04/15 03:34:55;;;;;;;30.30;22.45;;;13.30;99.90;;;;;;5078196;28;20048;-81
2022/04/15 03:37:21;;;;;;;25.67;21.75;;;13.30;99.90;;;;;;5077874;28;20128;-81
2022/04/15 03:39:47;;;;;;;27.48;21.58;;;13.30;99.90;;;;;;5077572;28;20382;-81
2022/04/15 03:42:13;;;;;;;23.50;20.23;;;13.30;99.90;;;;;;5059514;28;20036;-82
2022/04/15 03:44:38;;;;;;;19.65;17.63;;;13.30;99.90;;;;;;5077909;28;20454;-82
2022/04/15 03:47:05;;;;;;;22.48;19.10;;;13.30;99.90;;;;;;5060091;28;20024;-82
2022/04/15 03:49:31;;;;;;;20.60;18.40;;;13.30;99.90;;;;;;5077558;28;20028;-82
2022/04/15 03:51:57;;;;;;;15.98;14.35;;;13.30;99.90;;;;;;5081051;28;20031;-83
2022/04/15 03:54:22;;;;;;;15.98;13.85;;;13.40;99.90;;;;;;5062794;28;20567;-82
2022/04/15 03:56:48;;;;;;;14.02;12.43;;;13.40;99.90;;;;;;5081624;28;20037;-82
2022/04/15 03:59:14;;;;;;;14.80;13.30;;;13.40;99.90;;;;;;5079059;28;20135;-82
2022/04/15 04:01:40;;;;;;;21.58;16.92;;;13.40;99.90;;;;;;5062102;28;20150;-82
2022/04/15 04:04:06;;;;;;;18.75;16.83;;;13.40;99.90;;;;;;5061637;28;20031;-83
2022/04/15 04:06:32;;;;;;;21.00;18.50;;;13.40;99.90;;;;;;5079286;28;20021;-82
2022/04/15 04:08:58;;;;;;;24.08;21.05;;;13.40;99.90;;;;;;5079070;28;20021;-82
2022/04/15 04:11:23;;;;;;;25.33;22.60;;;13.40;99.90;;;;;;5079029;28;20489;-82
2022/04/15 04:13:49;;;;;;;26.02;23.08;;;13.40;99.90;;;;;;5081008;28;20154;-82
2022/04/15 04:16:18;;;;;;;26.45;21.80;;;13.30;99.90;;;;;;5083810;28;20028;-81
2022/04/15 04:18:44;;;;;;;26.63;23.67;;;13.30;99.90;;;;;;5083574;28;20034;-82
2022/04/15 04:21:10;;;;;;;25.40;21.90;;;13.30;99.90;;;;;;5083399;28;20072;-82
2022/04/15 04:23:37;;;;;;;27.25;21.30;;;13.30;99.90;;;;;;5086984;28;20203;-82
2022/04/15 04:26:03;;;;;;;24.90;22.23;;;13.20;99.90;;;;;;5066325;28;20380;-81
2022/04/15 04:28:29;;;;;;;27.13;23.83;;;13.20;99.90;;;;;;5076201;28;20029;-82
2022/04/15 04:30:55;;;;;;;30.63;25.02;;;13.20;99.90;;;;;;5082411;28;20461;-81
2022/04/15 04:33:21;;;;;;;26.40;23.42;;;13.20;99.90;;;;;;5080397;28;20038;-82
2022/04/15 04:35:47;;;;;;;28.23;25.05;;;13.20;99.90;;;;;;5081019;28;20067;-82
2022/04/15 04:38:13;;;;;;;31.98;27.13;;;13.20;99.90;;;;;;5082075;28;20465;-82
2022/04/15 04:40:39;;;;;;;30.20;25.33;;;13.20;99.90;;;;;;5082813;28;20024;-82
2022/04/15 04:43:05;;;;;;;26.20;23.08;;;13.20;99.90;;;;;;5082590;28;20473;-82
2022/04/15 04:45:35;;;;;;;25.65;22.90;;;13.20;99.90;;;;;;5083896;28;20151;-82
2022/04/15 04:48:01;;;;;;;25.25;20.80;;;13.20;99.90;;;;;;5063679;28;20280;-83
2022/04/15 04:50:28;;;;;;;21.80;19.48;;;13.20;99.90;;;;;;5082102;28;20050;-83
2022/04/15 04:52:54;;;;;;;22.80;18.83;;;13.20;99.90;;;;;;5082370;28;20020;-82
2022/04/15 04:55:20;;;;;;;18.83;16.85;;;13.30;99.90;;;;;;5082363;28;20035;-82
2022/04/15 04:57:46;;;;;;;27.73;23.42;;;13.30;99.90;;;;;;5067853;28;20036;-82
2022/04/15 05:00:14;;;;;;;26.60;23.27;;;13.30;99.90;;;;;;5078762;28;20452;-82
2022/04/15 05:02:41;;;;;;;30.02;24.25;;;13.30;99.90;;;;;;5078289;28;20025;-83
2022/04/15 05:05:08;;;;;;;26.20;22.63;;;13.30;99.90;;;;;;5078895;28;20021;-83
2022/04/15 05:07:34;;;;;;;23.45;21.00;;;13.30;99.90;;;;;;5062981;28;20092;-81
2022/04/15 05:10:00;;;;;;;22.67;20.05;;;13.40;99.90;;;;;;5082119;28;20016;-83
2022/04/15 05:12:25;;;;;;;23.75;21.13;;;13.40;99.90;;;;;;5084595;28;20025;-82
2022/04/15 05:14:51;;;;;;;24.83;22.20;;;13.40;99.90;;;;;;5084506;28;20036;-80
2022/04/15 05:17:18;;;;;;;21.58;19.30;;;13.50;99.90;;;;;;5086118;28;20016;-80
2022/04/15 05:19:44;;;;;;;18.75;16.85;;;13.50;99.90;;;;;;5085735;28;20116;-81
2022/04/15 05:24:41;;;;;;;23.13;20.58;;;13.50;99.90;;;;;;5078899;28;20053;-79
2022/04/15 05:27:07;;;;;;;24.77;20.33;;;13.60;99.90;;;;;;5086384;28;20024;-79
2022/04/15 05:29:33;;;;;;;27.98;22.58;;;13.60;99.90;;;;;;5093312;28;20058;-79
2022/04/15 05:32:03;;;;;;;26.92;22.98;;;13.60;99.90;;;;;;5069583;28;20025;-78
2022/04/15 05:34:31;;;;;;;25.38;22.02;;;13.60;99.90;;;;;;5040976;28;20378;-78
2022/04/15 05:36:57;;;;;;;25.08;21.67;;;13.70;99.90;;;;;;5056850;28;20036;-78
2022/04/15 05:39:25;;;;;;;26.73;22.42;;;13.70;99.90;;;;;;5041323;28;20037;-79
2022/04/15 05:41:51;;;;;;;27.27;24.30;;;13.70;99.90;;;;;;5041649;28;20600;-80
2022/04/15 05:44:17;;;;;;;27.73;23.08;;;13.70;99.90;;;;;;5039924;28;20049;-79
2022/04/15 05:46:42;;;;;;;26.95;22.98;;;13.70;99.90;;;;;;5041957;28;20025;-78
2022/04/15 05:49:19;;;;;;;22.77;19.63;;;13.70;99.90;;;;;;5038455;28;20064;-78
2022/04/15 05:51:48;;;;;;;19.23;17.20;;;13.80;99.90;;;;;;5038998;28;20081;-79
2022/04/15 05:54:14;;;;;;;23.88;21.38;;;13.90;99.90;;;;;;5040199;28;20045;-79
2022/04/15 05:56:39;;;;;;;21.20;18.88;;;14.10;99.90;;;;;;5039214;28;20025;-79
2022/04/15 05:59:05;;;;;;;19.50;17.45;;;14.20;99.90;;;;;;5052729;28;20025;-79
2022/04/15 06:01:31;;;;;;;23.13;19.65;;;14.30;99.90;;;;;;5041459;28;20109;-79
2022/04/15 06:03:57;;;;;;;21.60;19.30;;;14.40;99.90;;;;;;5039138;28;20036;-79
2022/04/15 06:06:22;;;;;;;28.77;23.33;;;14.40;99.90;;;;;;5039783;28;20037;-78
2022/04/15 06:08:48;;;;;;;22.05;18.60;;;14.40;99.90;;;;;;5039603;28;20474;-79
2022/04/15 06:11:16;;;;;;;24.48;20.52;;;14.40;99.90;;;;;;5041808;28;20029;-80
2022/04/15 06:13:47;;;;;;;24.33;19.48;;;14.30;99.90;;;;;;5044255;28;20064;-79
2022/04/15 06:16:20;;;;;;;25.67;21.17;;;14.10;99.90;;;;;;5041506;28;20059;-79
2022/04/15 06:18:46;;;;;;;22.13;18.42;;;14.10;99.90;;;;;;5041287;28;20041;-79
2022/04/15 06:21:12;;;;;;;22.70;20.30;;;14.00;99.90;;;;;;5042215;28;20085;-79
2022/04/15 06:23:40;;;;;;;23.92;21.08;;;14.10;99.90;;;;;;5042951;28;20068;-79
2022/04/15 06:26:11;;;;;;;24.25;20.98;;;14.20;99.90;;;;;;5038267;28;20025;-79
2022/04/15 06:28:38;;;;;;;25.25;21.48;;;14.20;99.90;;;;;;5038021;28;20309;-80
2022/04/15 06:31:04;;;;;;;23.20;20.42;;;14.20;99.90;;;;;;5044600;28;20109;-78
2022/04/15 06:33:29;;;;;;;25.48;20.95;;;14.20;99.90;;;;;;5044543;28;20071;-79
2022/04/15 06:35:55;;;;;;;23.38;20.58;;;14.20;99.90;;;;;;5044204;28;20025;-78
2022/04/15 06:38:21;;;;;;;24.20;20.60;;;14.30;99.90;;;;;;5044683;28;20057;-79
2022/04/15 06:40:46;;;;;;;23.63;21.15;;;14.40;99.90;;;;;;5042214;28;20464;-78
2022/04/15 06:43:15;;;;;;;22.77;19.17;;;14.40;99.90;;;;;;5043897;28;20082;-77
2022/04/15 06:45:41;;;;;;;22.90;18.60;;;14.40;99.90;;;;;;5047157;28;20022;-79
2022/04/15 06:48:08;;;;;;;21.40;17.30;;;14.40;99.90;;;;;;5044790;28;20033;-78
2022/04/15 06:50:33;;;;;;;16.83;14.90;;;14.30;99.90;;;;;;5044655;28;20029;-78
2022/04/15 06:52:59;;;;;;;19.70;16.75;;;14.30;99.90;;;;;;5044870;28;20025;-78
2022/04/15 06:55:25;;;;;;;19.23;17.20;;;14.20;99.90;;;;;;5053053;28;20009;-79
2022/04/15 06:57:51;;;;;;;20.38;16.35;;;14.10;99.90;;;;;;5051498;28;20409;-78
2022/04/15 07:00:19;;;;;;;21.13;18.25;;;14.10;99.90;;;;;;5044116;28;20075;-78
2022/04/15 07:02:45;;;;;;;21.58;17.92;;;14.10;99.90;;;;;;5061801;28;20124;-78
2022/04/15 07:05:11;;;;;;;20.73;16.35;;;14.00;99.90;;;;;;5062491;28;20056;-80
2022/04/15 07:07:40;;;;;;;20.42;17.02;;;14.00;99.90;;;;;;5060698;28;20021;-79
2022/04/15 07:10:11;;;;;;;20.67;18.15;;;14.10;99.90;;;;;;5062099;28;20040;-79
2022/04/15 07:12:37;;;;;;;21.63;16.65;;;14.20;99.90;;;;;;5061643;28;20124;-79
2022/04/15 07:15:03;;;;;;;21.23;18.92;;;14.20;99.90;;;;;;5053520;28;20037;-78
2022/04/15 07:17:32;;;;;;;21.88;17.83;;;14.10;99.90;;;;;;5071376;28;20029;-79
2022/04/15 07:19:58;;;;;;;23.35;20.63;;;14.00;99.90;;;;;;5041929;28;20033;-79
2022/04/15 07:22:26;;;;;;;27.75;21.17;;;14.00;99.90;;;;;;5063206;28;20081;-78
2022/04/15 07:24:52;;;;;;;23.63;19.60;;;14.10;99.90;;;;;;5060062;28;20032;-78
2022/04/15 07:27:17;;;;;;;22.27;19.83;;;14.10;99.90;;;;;;5063322;28;20025;-79
2022/04/15 07:29:44;;;;;;;27.38;21.50;;;14.30;99.90;;;;;;5055497;28;20022;-79
2022/04/15 07:32:10;;;;;;;22.00;18.90;;;14.40;99.90;;;;;;5039914;28;20017;-78
2022/04/15 07:34:36;;;;;;;19.17;17.17;;;14.60;99.90;;;;;;5061244;28;20031;-79
2022/04/15 07:37:03;;;;;;;18.98;16.98;;;14.60;99.90;;;;;;5059522;28;20428;-78
2022/04/15 07:39:29;;;;;;;20.08;17.85;;;14.70;99.90;;;;;;5039000;28;20029;-78
2022/04/15 07:41:55;;;;;;;20.02;17.65;;;14.80;99.90;;;;;;5059731;28;20025;-79
2022/04/15 07:44:21;;;;;;;20.08;16.73;;;14.80;99.90;;;;;;5043564;28;20444;-79
2022/04/15 07:46:47;;;;;;;17.85;15.95;;;14.80;99.90;;;;;;5059019;28;20029;-78
2022/04/15 07:49:13;;;;;;;17.27;14.98;;;14.70;99.90;;;;;;5056994;28;20025;-79
2022/04/15 07:51:39;;;;;;;18.02;16.13;;;14.90;99.90;;;;;;5038942;28;20032;-78
2022/04/15 07:54:07;;;;;;;18.65;16.60;;;14.90;99.90;;;;;;5058251;28;20102;-80
2022/04/15 07:56:33;;;;;;;18.10;15.77;;;14.90;99.90;;;;;;5058088;28;20500;-78
2022/04/15 07:59:00;;;;;;;17.33;14.48;;;14.80;99.90;;;;;;5058093;28;20036;-79
2022/04/15 08:01:29;;;;;;;17.38;15.52;;;14.80;99.90;;;;;;5030891;28;20029;-80
2022/04/15 08:03:55;;;;;;;19.48;16.80;;;15.00;99.90;;;;;;5057117;28;20028;-78
2022/04/15 08:06:22;;;;;;;16.10;14.40;;;15.00;99.90;;;;;;5059343;28;20024;-79
2022/04/15 08:08:49;;;;;;;19.08;17.20;;;15.00;99.90;;;;;;5057083;28;20052;-79
2022/04/15 08:11:15;;;;;;;20.77;18.63;;;15.20;99.60;;;;;;5057613;28;20055;-79
2022/04/15 08:13:41;;;;;;;21.35;19.15;;;15.30;98.80;;;;;;5059713;28;20035;-78
2022/04/15 08:16:08;;;;;;;21.25;19.15;;;15.50;98.30;;;;;;5057121;28;20428;-80
2022/04/15 08:18:35;;;;;;;18.95;17.05;;;15.70;97.90;;;;;;5057372;28;20025;-80
2022/04/15 08:21:01;;;;;;;16.58;14.90;;;15.80;97.40;;;;;;5057427;28;20021;-80
2022/04/15 08:23:27;;;;;;;13.80;12.30;;;16.00;97.30;;;;;;5038648;28;20029;-78
2022/04/15 08:25:53;;;;;;;14.05;12.57;;;16.30;96.70;;;;;;5056405;28;20087;-78
2022/04/15 08:28:18;;;;;;;15.75;14.15;;;16.30;96.00;;;;;;5038039;28;20024;-79
2022/04/15 08:30:44;;;;;;;14.80;12.48;;;16.40;95.50;;;;;;5037668;28;20363;-79
2022/04/15 08:33:10;;;;;;;11.82;10.63;;;16.60;95.00;;;;;;5037848;28;20056;-79
2022/04/15 08:35:36;;;;;;;8.75;7.95;;;16.90;94.40;;;;;;5037695;28;20398;-79
2022/04/15 08:38:02;;;;;;;17.10;15.18;;;17.30;93.90;;;;;;5037693;28;20018;-78
2022/04/15 08:40:31;;;;;;;14.98;13.57;;;17.70;90.80;;;;;;5037197;28;20462;-79
2022/04/15 08:42:58;;;;;;;12.35;11.13;;;17.90;90.50;;;;;;5036546;28;20025;-78
2022/04/15 08:45:28;;;;;;;11.68;10.57;;;17.90;90.90;;;;;;5039380;28;20029;-78
2022/04/15 08:47:57;;;;;;;15.18;13.30;;;17.90;90.50;;;;;;5037022;28;20021;-78
2022/04/15 08:50:24;;;;;;;13.20;11.65;;;17.90;89.40;;;;;;5035770;28;20075;-78
2022/04/15 08:52:56;;;;;;;14.38;12.77;;;18.10;88.30;;;;;;5037238;28;20029;-78
2022/04/15 08:55:23;;;;;;;14.20;12.65;;;18.20;85.70;;;;;;5038849;28;20037;-79
2022/04/15 08:57:49;;;;;;;11.70;10.13;;;18.30;85.80;;;;;;5037780;28;20528;-79
2022/04/15 09:00:16;;;;;;;12.38;10.93;;;18.30;85.60;;;;;;5048580;28;20048;-79
2022/04/15 09:02:42;;;;;;;11.55;8.98;;;18.30;84.40;;;;;;5037089;28;20029;-80
2022/04/15 09:05:09;;;;;;;15.85;13.95;;;18.10;85.20;;;;;;5039037;28;20415;-79
2022/04/15 09:07:36;;;;;;;15.48;13.95;;;17.90;83.30;;;;;;5036600;28;20669;-79
2022/04/15 09:10:03;;;;;;;16.80;13.70;;;17.60;84.10;;;;;;5037492;28;20030;-79
2022/04/15 09:12:29;;;;;;;11.93;10.00;;;17.40;85.10;;;;;;5038559;28;20049;-79
2022/04/15 09:14:59;;;;;;;12.10;10.65;;;17.30;86.60;;;;;;5047964;28;20013;-79
2022/04/15 09:17:28;;;;;;;10.57;9.43;;;17.60;86.20;;;;;;5051864;28;20091;-79
2022/04/15 09:19:54;;;;;;;11.73;10.52;;;17.80;85.10;;;;;;5037728;28;20018;-79
2022/04/15 09:22:20;;;;;;;11.07;9.98;;;18.00;83.80;;;;;;5038299;28;20430;-79
2022/04/15 09:24:47;;;;;;;10.90;9.52;;;18.40;82.50;;;;;;5038037;28;20093;-81
2022/04/15 09:27:15;;;;;;;9.35;7.30;;;18.90;79.60;;;;;;5037806;28;20036;-79
2022/04/15 09:29:41;;;;;;;9.43;8.52;;;19.40;73.80;;;;;;5039567;28;20103;-78
2022/04/15 09:32:08;;;;;;;11.90;10.75;;;19.40;72.70;;;;;;5058557;28;20029;-79
2022/04/15 09:34:34;;;;;;;9.25;8.15;;;19.60;71.30;;;;;;5040987;28;20081;-79
2022/04/15 09:37:06;;;;;;;5.72;5.07;;;19.70;70.80;;;;;;5058160;28;20324;-80
2022/04/15 09:39:31;;;;;;;8.23;7.43;;;19.80;71.10;;;;;;5057141;28;20025;-80
2022/04/15 09:41:57;;;;;;;6.53;4.72;;;20.00;68.20;;;;;;5059827;28;20064;-79
2022/04/15 09:44:31;;;;;;;7.40;6.15;;;19.90;68.30;;;;;;5061949;28;20035;-79
2022/04/15 09:47:03;;;;;;;11.35;9.80;;;19.90;67.50;;;;;;5042610;28;20021;-80
2022/04/15 09:49:32;;;;;;;10.63;7.85;;;19.80;65.20;;;;;;5060258;28;20018;-79
2022/04/15 09:51:59;;;;;;;7.72;6.93;;;19.50;66.40;;;;;;5041837;28;20025;-80
2022/04/15 09:54:28;;;;;;;8.55;7.57;;;19.50;67.80;;;;;;5058151;28;20025;-79
2022/04/15 09:56:57;;;;;;;7.20;6.50;;;19.90;66.00;;;;;;5061313;28;20078;-79
2022/04/15 09:59:24;;;;;;;7.55;6.85;;;20.10;64.70;;;;;;5041099;28;20029;-79
2022/04/15 10:02:00;;;;;;;6.88;6.13;;;20.00;61.20;;;;;;5041017;28;20030;-80
2022/04/15 10:04:28;;;;;;;7.93;6.32;;;19.40;62.10;;;;;;5042988;28;20021;-79
2022/04/15 10:06:54;;;;;;;6.13;5.50;;;19.10;62.50;;;;;;5041806;28;20023;-79
2022/04/15 10:09:20;;;;;;;7.10;5.97;;;19.30;61.60;;;;;;5041567;28;20430;-79
2022/04/15 10:11:47;;;;;;;6.35;4.32;;;19.70;59.30;;;;;;5042711;28;20025;-80
2022/04/15 10:14:16;;;;;;;6.88;6.10;;;20.10;58.60;;;;;;5041401;28;20036;-80
2022/04/15 10:16:42;;;;;;;6.90;5.70;;;20.30;56.00;;;;;;5042350;28;20425;-80
2022/04/15 10:19:10;;;;;;;6.07;5.22;;;20.60;56.50;;;;;;5043003;28;20030;-79
2022/04/15 10:21:43;;;;;;;5.32;4.80;;;20.90;56.30;;;;;;5046211;28;20492;-79
2022/04/15 10:24:09;;;;;;;7.25;5.15;;;21.10;55.70;;;;;;5044775;28;20432;-80
2022/04/15 10:26:42;;;;;;;5.68;4.93;;;21.20;53.50;;;;;;5043860;28;20036;-80
2022/04/15 10:29:11;;;;;;;8.20;5.68;;;20.50;53.70;;;;;;5046593;28;20032;-81
2022/04/15 10:31:42;;;;;;;5.00;4.35;;;19.80;54.30;;;;;;5037926;28;20024;-80
2022/04/15 10:34:19;;;;;;;3.70;3.40;;;19.70;56.40;;;;;;5063446;28;20035;-80
2022/04/15 10:36:57;;;;;;;7.75;5.80;;;20.20;55.80;;;;;;5076044;28;20024;-79
2022/04/15 10:39:24;;;;;;;6.30;4.95;;;20.50;53.90;;;;;;5075077;28;20029;-80
2022/04/15 10:41:58;;;;;;;8.00;6.43;;;20.50;53.60;;;;;;5075974;28;20009;-78
2022/04/15 10:44:31;;;;;;;6.80;5.45;;;20.20;53.60;;;;;;5072103;28;20029;-79
2022/04/15 10:46:58;;;;;;;8.48;5.90;;;19.60;54.70;;;;;;5060865;28;20027;-79
2022/04/15 10:49:30;;;;;;;8.10;6.85;;;19.30;56.40;;;;;;5041181;28;20441;-79
2022/04/15 10:51:58;;;;;;;5.93;4.00;;;19.40;56.80;;;;;;5060709;28;20089;-79
2022/04/15 10:54:36;;;;;;;6.97;5.55;;;19.60;57.30;;;;;;5043628;28;20025;-80
2022/04/15 10:57:05;;;;;;;3.95;3.55;;;19.80;56.50;;;;;;5060199;28;20029;-79
2022/04/15 11:02:24;;;;;;;7.40;6.43;;;21.00;54.40;;;;;;5042501;28;20028;-79
2022/04/15 11:04:51;;;;;;;9.40;7.88;;;21.10;52.00;;;;;;5039172;28;20022;-80
2022/04/15 11:07:27;;;;;;;7.68;6.20;;;20.90;52.60;;;;;;5038638;28;20072;-79
2022/04/15 11:09:54;;;;;;;10.98;5.13;;;20.90;53.00;;;;;;5041168;28;20107;-79
2022/04/15 11:12:42;;;;;;;7.10;5.35;;;20.70;52.50;;;;;;5041237;28;20022;-81
2022/04/15 11:15:08;;;;;;;7.53;5.97;;;20.50;51.80;;;;;;5032104;28;20081;-79
2022/04/15 11:17:46;;;;;;;7.53;5.70;;;20.20;52.50;;;;;;5054389;28;20027;-79
2022/04/15 11:20:12;;;;;;;7.10;5.70;;;20.10;53.80;;;;;;5031367;28;20021;-79
2022/04/15 11:22:44;;;;;;;7.00;5.82;;;20.00;53.60;;;;;;5057192;22;20055;-79
2022/04/15 11:25:14;;;;;;;8.32;6.70;;;19.70;54.40;;;;;;5069022;28;20450;-80
2022/04/15 11:27:41;;;;;;;8.88;5.88;;;19.40;54.90;;;;;;5073773;28;20024;-79
2022/04/15 11:30:13;;;;;;;7.70;6.47;;;19.20;56.20;;;;;;5074454;28;20021;-79
2022/04/15 11:32:51;;;;;;;10.05;6.10;;;19.30;54.70;;;;;;5054789;28;20385;-80
2022/04/15 11:35:31;;;;;;;7.90;4.70;;;19.40;55.40;;;;;;5038858;28;20032;-78
2022/04/15 11:38:03;;;;;;;8.77;6.70;;;19.90;54.10;;;;;;5056280;28;20025;-77
2022/04/15 11:40:34;;;;;;;7.65;6.10;;;19.80;54.30;;;;;;5054118;28;20060;-77
2022/04/15 11:43:00;;;;;;;9.60;7.40;;;19.40;55.30;;;;;;5056081;28;20443;-77
2022/04/15 11:45:37;;;;;;;8.35;6.10;;;19.10;56.70;;;;;;5056621;28;20056;-77
2022/04/15 11:48:19;;;;;;;4.97;4.15;;;18.80;57.70;;;;;;5054450;28;20025;-78
2022/04/15 11:50:46;;;;;;;9.30;5.50;;;18.70;58.30;;;;;;5053700;28;20025;-78
2022/04/15 11:53:13;;;;;;;8.05;6.05;;;18.80;57.60;;;;;;5057110;28;20385;-78
2022/04/15 11:55:58;;;;;;;5.80;5.30;;;19.20;56.50;;;;;;5039503;28;20510;-78
2022/04/15 11:58:33;;;;;;;7.95;5.40;;;19.60;55.70;;;;;;5062714;28;20025;-78
2022/04/15 12:01:00;;;;;;;5.97;5.10;;;20.30;52.90;;;;;;5069668;28;20020;-78
2022/04/15 12:03:27;;;;;;;5.10;4.60;;;20.60;52.50;;;;;;5078884;28;20017;-78
2022/04/15 12:05:55;;;;;;;6.75;5.85;;;21.10;52.00;;;;;;5076518;28;20055;-78
2022/04/15 12:08:21;;;;;;;6.53;5.00;;;21.20;51.60;;;;;;5076227;28;20021;-79
2022/04/15 12:10:49;;;;;;;6.55;5.10;;;21.60;51.20;;;;;;5075865;28;20097;-78
2022/04/15 12:13:16;;;;;;;5.70;4.47;;;21.80;49.70;;;;;;5075193;28;20492;-78
2022/04/15 12:15:43;;;;;;;5.72;4.70;;;22.10;49.10;;;;;;5079152;28;20032;-79
2022/04/15 12:18:09;;;;;;;6.00;3.78;;;22.30;48.40;;;;;;5076561;28;20412;-79
2022/04/15 12:20:37;;;;;;;7.43;6.40;;;22.10;49.30;;;;;;5075691;28;20028;-78
2022/04/15 12:23:04;;;;;;;5.95;5.35;;;21.60;50.00;;;;;;5074278;28;20086;-79
2022/04/15 12:26:06;;;;;;;4.65;4.25;;;21.10;51.70;;;;;;5075575;28;20425;-79
2022/04/15 12:31:03;;;;;;;4.88;4.10;;;20.70;51.20;;;;;;5075454;28;20067;-79
2022/04/15 12:33:28;;;;;;;6.15;3.95;;;20.70;51.50;;;;;;5074270;28;20028;-78
2022/04/15 12:36:02;;;;;;;7.78;5.65;;;20.70;50.90;;;;;;5074231;28;20078;-78
2022/04/15 12:38:29;;;;;;;6.88;4.28;;;20.90;48.80;;;;;;5056201;28;20024;-78
2022/04/15 12:41:11;;;;;;;5.45;4.72;;;21.20;48.90;;;;;;5074501;28;20021;-78
2022/04/15 12:43:37;;;;;;;4.45;3.78;;;21.60;48.10;;;;;;5075477;28;20032;-78